sensor_id;sensor_type;location;lat;lon;timestamp;pressure;altitude;pressure_sealevel;temperature;humidity
8280;BME280;8335;42.646;23.380;2023-09-18T00:00:50;145726.38;;;16.82;100.00
8280;BME280;8335;42.646;23.380;2023-09-18T00:03:16;145743.84;;;16.89;100.00
8280;BME280;8335;42.646;23.380;2023-09-18T00:05:45;145736.38;;;16.86;100.00
8280;BME280;8335;42.646;23.380;2023-09-18T00:08:13;145707.63;;;16.74;100.00
8280;BME280;8335;42.646;23.380;2023-09-18T00:10:40;145682.56;;;16.64;100.00
8280;BME280;8335;42.646;23.380;2023-09-18T00:13:07;145676.34;;;16.62;100.00
8280;BME280;8335;42.646;23.380;2023-09-18T00:15:34;145683.88;;;16.65;100.00
8280;BME280;8335;42.646;23.380;2023-09-18T00:18:04;145681.34;;;16.64;100.00
8280;BME280;8335;42.646;23.380;2023-09-18T00:20:31;145692.59;;;16.68;100.00
8280;BME280;8335;42.646;23.380;2023-09-18T00:22:57;145701.41;;;16.72;100.00
8280;BME280;8335;42.646;23.380;2023-09-18T00:25:24;145687.59;;;16.66;100.00
8280;BME280;8335;42.646;23.380;2023-09-18T00:27:51;145703.91;;;16.73;100.00
8280;BME280;8335;42.646;23.380;2023-09-18T00:30:18;145742.63;;;16.89;100.00
8280;BME280;8335;42.646;23.380;2023-09-18T00:32:45;145762.59;;;16.97;100.00
8280;BME280;8335;42.646;23.380;2023-09-18T00:35:13;145756.38;;;16.94;100.00
8280;BME280;8335;42.646;23.380;2023-09-18T00:37:40;145756.38;;;16.94;100.00
8280;BME280;8335;42.646;23.380;2023-09-18T00:40:09;145742.63;;;16.89;100.00
8280;BME280;8335;42.646;23.380;2023-09-18T00:42:37;145736.38;;;16.86;100.00
8280;BME280;8335;42.646;23.380;2023-09-18T00:45:04;145743.84;;;16.89;100.00
8280;BME280;8335;42.646;23.380;2023-09-18T00:47:31;145730.09;;;16.84;100.00
8280;BME280;8335;42.646;23.380;2023-09-18T00:49:58;145726.38;;;16.82;100.00
8280;BME280;8335;42.646;23.380;2023-09-18T00:52:27;145703.91;;;16.73;100.00
8280;BME280;8335;42.646;23.380;2023-09-18T00:54:54;145712.63;;;16.76;100.00
8280;BME280;8335;42.646;23.380;2023-09-18T00:57:21;145716.34;;;16.78;100.00
8280;BME280;8335;42.646;23.380;2023-09-18T00:59:48;145731.34;;;16.84;100.00
8280;BME280;8335;42.646;23.380;2023-09-18T01:02:15;145737.63;;;16.87;100.00
8280;BME280;8335;42.646;23.380;2023-09-18T01:04:42;145750.09;;;16.92;100.00
8280;BME280;8335;42.646;23.380;2023-09-18T01:07:10;145752.56;;;16.93;100.00
8280;BME280;8335;42.646;23.380;2023-09-18T01:09:38;145763.84;;;16.97;100.00
8280;BME280;8335;42.646;23.380;2023-09-18T01:12:09;145771.38;;;17.00;100.00
8280;BME280;8335;42.646;23.380;2023-09-18T01:14:42;145770.06;;;17.00;100.00
8280;BME280;8335;42.646;23.380;2023-09-18T01:17:12;145795.09;;;17.10;100.00
8280;BME280;8335;42.646;23.380;2023-09-18T01:19:40;145753.88;;;16.93;100.00
8280;BME280;8335;42.646;23.380;2023-09-18T01:22:10;145798.81;;;17.12;100.00
8280;BME280;8335;42.646;23.380;2023-09-18T01:24:39;145803.81;;;17.14;100.00
8280;BME280;8335;42.646;23.380;2023-09-18T01:27:08;145793.84;;;17.10;100.00
8280;BME280;8335;42.646;23.380;2023-09-18T01:29:35;145796.34;;;17.11;100.00
8280;BME280;8335;42.646;23.380;2023-09-18T01:32:02;145791.34;;;17.09;100.00
8280;BME280;8335;42.646;23.380;2023-09-18T01:34:32;145781.34;;;17.04;100.00
8280;BME280;8335;42.646;23.380;2023-09-18T01:37:02;145787.56;;;17.07;100.00
8280;BME280;8335;42.646;23.380;2023-09-18T01:39:31;145818.81;;;17.20;100.00
8280;BME280;8335;42.646;23.380;2023-09-18T01:42:01;145821.31;;;17.21;100.00
8280;BME280;8335;42.646;23.380;2023-09-18T01:44:29;145822.53;;;17.21;100.00
8280;BME280;8335;42.646;23.380;2023-09-18T01:46:58;145826.34;;;17.23;100.00
8280;BME280;8335;42.646;23.380;2023-09-18T01:49:29;145833.81;;;17.26;100.00
8280;BME280;8335;42.646;23.380;2023-09-18T01:51:56;145817.56;;;17.19;100.00
8280;BME280;8335;42.646;23.380;2023-09-18T01:54:23;145855.03;;;17.34;100.00
8280;BME280;8335;42.646;23.380;2023-09-18T01:56:51;145850.06;;;17.32;100.00
8280;BME280;8335;42.646;23.380;2023-09-18T01:59:20;145852.56;;;17.33;100.00
8280;BME280;8335;42.646;23.380;2023-09-18T02:01:47;145858.84;;;17.36;100.00
8280;BME280;8335;42.646;23.380;2023-09-18T02:04:14;145867.56;;;17.40;100.00
8280;BME280;8335;42.646;23.380;2023-09-18T02:06:41;145873.78;;;17.42;100.00
8280;BME280;8335;42.646;23.380;2023-09-18T02:09:08;145862.56;;;17.38;100.00
8280;BME280;8335;42.646;23.380;2023-09-18T02:11:36;145843.81;;;17.30;100.00
8280;BME280;8335;42.646;23.380;2023-09-18T02:14:04;145823.84;;;17.22;100.00
8280;BME280;8335;42.646;23.380;2023-09-18T02:16:32;145828.81;;;17.24;100.00
8280;BME280;8335;42.646;23.380;2023-09-18T02:18:59;145815.06;;;17.18;100.00
8280;BME280;8335;42.646;23.380;2023-09-18T02:21:26;145807.59;;;17.15;100.00
8280;BME280;8335;42.646;23.380;2023-09-18T02:23:53;145801.31;;;17.13;100.00
8280;BME280;8335;42.646;23.380;2023-09-18T02:26:21;145786.31;;;17.06;100.00
8280;BME280;8335;42.646;23.380;2023-09-18T02:28:48;145783.81;;;17.05;100.00
8280;BME280;8335;42.646;23.380;2023-09-18T02:31:15;145791.34;;;17.09;100.00
8280;BME280;8335;42.646;23.380;2023-09-18T02:33:43;145805.06;;;17.14;100.00
8280;BME280;8335;42.646;23.380;2023-09-18T02:36:10;145802.56;;;17.13;100.00
8280;BME280;8335;42.646;23.380;2023-09-18T02:38:37;145810.09;;;17.16;100.00
8280;BME280;8335;42.646;23.380;2023-09-18T02:41:03;145763.84;;;16.97;100.00
8280;BME280;8335;42.646;23.380;2023-09-18T02:43:30;145727.63;;;16.83;100.00
8280;BME280;8335;42.646;23.380;2023-09-18T02:45:57;145718.91;;;16.79;100.00
8280;BME280;8335;42.646;23.380;2023-09-18T02:48:24;145743.84;;;16.89;100.00
8280;BME280;8335;42.646;23.380;2023-09-18T02:50:52;145740.13;;;16.88;100.00
8280;BME280;8335;42.646;23.380;2023-09-18T02:53:20;145707.63;;;16.74;100.00
8280;BME280;8335;42.646;23.380;2023-09-18T02:55:50;145748.84;;;16.91;100.00
8280;BME280;8335;42.646;23.380;2023-09-18T02:58:17;145747.59;;;16.91;100.00
8280;BME280;8335;42.646;23.380;2023-09-18T03:00:45;145742.63;;;16.89;100.00
8280;BME280;8335;42.646;23.380;2023-09-18T03:03:13;145710.13;;;16.75;100.00
8280;BME280;8335;42.646;23.380;2023-09-18T03:05:40;145701.41;;;16.72;100.00
8280;BME280;8335;42.646;23.380;2023-09-18T03:08:09;145610.16;;;16.35;100.00
8280;BME280;8335;42.646;23.380;2023-09-18T03:10:38;145670.13;;;16.59;100.00
8280;BME280;8335;42.646;23.380;2023-09-18T03:13:06;145575.19;;;16.20;100.00
8280;BME280;8335;42.646;23.380;2023-09-18T03:15:34;145638.88;;;16.46;100.00
8280;BME280;8335;42.646;23.380;2023-09-18T03:18:03;145638.88;;;16.46;100.00
8280;BME280;8335;42.646;23.380;2023-09-18T03:20:30;145625.13;;;16.41;100.00
8280;BME280;8335;42.646;23.380;2023-09-18T03:22:59;145625.13;;;16.41;100.00
8280;BME280;8335;42.646;23.380;2023-09-18T03:25:27;145622.66;;;16.40;100.00
8280;BME280;8335;42.646;23.380;2023-09-18T03:27:55;145610.16;;;16.35;100.00
8280;BME280;8335;42.646;23.380;2023-09-18T03:30:23;145586.44;;;16.25;100.00
8280;BME280;8335;42.646;23.380;2023-09-18T03:32:50;145570.22;;;16.18;100.00
8280;BME280;8335;42.646;23.380;2023-09-18T03:35:18;145530.28;;;16.02;100.00
8280;BME280;8335;42.646;23.380;2023-09-18T03:37:45;145571.44;;;16.19;100.00
8280;BME280;8335;42.646;23.380;2023-09-18T03:40:12;145447.88;;;15.68;100.00
8280;BME280;8335;42.646;23.380;2023-09-18T03:42:40;145536.50;;;16.05;100.00
8280;BME280;8335;42.646;23.380;2023-09-18T03:45:09;145481.56;;;15.82;100.00
8280;BME280;8335;42.646;23.380;2023-09-18T03:47:36;145494.06;;;15.87;100.00
8280;BME280;8335;42.646;23.380;2023-09-18T03:50:05;145504.03;;;15.91;100.00
8280;BME280;8335;42.646;23.380;2023-09-18T03:52:32;145499.06;;;15.89;100.00
8280;BME280;8335;42.646;23.380;2023-09-18T03:54:59;145497.81;;;15.89;100.00
8280;BME280;8335;42.646;23.380;2023-09-18T03:57:25;145496.56;;;15.88;100.00
8280;BME280;8335;42.646;23.380;2023-09-18T03:59:54;145496.56;;;15.88;100.00
8280;BME280;8335;42.646;23.380;2023-09-18T04:02:21;145476.59;;;15.80;100.00
8280;BME280;8335;42.646;23.380;2023-09-18T04:04:48;145482.81;;;15.83;100.00
8280;BME280;8335;42.646;23.380;2023-09-18T04:07:15;145496.56;;;15.88;100.00
8280;BME280;8335;42.646;23.380;2023-09-18T04:09:43;145491.56;;;15.86;100.00
8280;BME280;8335;42.646;23.380;2023-09-18T04:12:10;145492.81;;;15.87;100.00
8280;BME280;8335;42.646;23.380;2023-09-18T04:14:38;145415.38;;;15.55;100.00
8280;BME280;8335;42.646;23.380;2023-09-18T04:17:06;145480.31;;;15.82;100.00
8280;BME280;8335;42.646;23.380;2023-09-18T04:19:33;145491.56;;;15.86;100.00
8280;BME280;8335;42.646;23.380;2023-09-18T04:22:00;145472.81;;;15.79;100.00
8280;BME280;8335;42.646;23.380;2023-09-18T04:24:26;145449.13;;;15.69;100.00
8280;BME280;8335;42.646;23.380;2023-09-18T04:26:53;145459.13;;;15.73;100.00
8280;BME280;8335;42.646;23.380;2023-09-18T04:29:20;145456.63;;;15.72;100.00
8280;BME280;8335;42.646;23.380;2023-09-18T04:31:47;145450.34;;;15.69;100.00
8280;BME280;8335;42.646;23.380;2023-09-18T04:34:15;145452.84;;;15.71;100.00
8280;BME280;8335;42.646;23.380;2023-09-18T04:36:42;145464.09;;;15.75;100.00
8280;BME280;8335;42.646;23.380;2023-09-18T04:39:10;145526.53;;;16.01;100.00
8280;BME280;8335;42.646;23.380;2023-09-18T04:41:37;145606.41;;;16.33;100.00
8280;BME280;8335;42.646;23.380;2023-09-18T04:44:04;145680.09;;;16.63;100.00
8280;BME280;8335;42.646;23.380;2023-09-18T04:46:34;145792.59;;;17.09;100.00
8280;BME280;8335;42.646;23.380;2023-09-18T04:49:01;145928.81;;;17.65;100.00
8280;BME280;8335;42.646;23.380;2023-09-18T04:51:31;146025.09;;;18.04;100.00
8280;BME280;8335;42.646;23.380;2023-09-18T04:53:58;146083.84;;;18.28;100.00
8280;BME280;8335;42.646;23.380;2023-09-18T04:56:25;146122.66;;;18.43;100.00
8280;BME280;8335;42.646;23.380;2023-09-18T04:58:52;146107.66;;;18.37;100.00
8280;BME280;8335;42.646;23.380;2023-09-18T05:01:19;146033.88;;;18.07;100.00
8280;BME280;8335;42.646;23.380;2023-09-18T05:03:46;145980.09;;;17.85;100.00
8280;BME280;8335;42.646;23.380;2023-09-18T05:06:15;145951.34;;;17.74;100.00
8280;BME280;8335;42.646;23.380;2023-09-18T05:08:44;145955.09;;;17.75;100.00
8280;BME280;8335;42.646;23.380;2023-09-18T05:11:10;145928.81;;;17.65;100.00
8280;BME280;8335;42.646;23.380;2023-09-18T05:13:37;145916.31;;;17.59;100.00
8280;BME280;8335;42.646;23.380;2023-09-18T05:16:04;145923.78;;;17.63;100.00
8280;BME280;8335;42.646;23.380;2023-09-18T05:18:31;145937.56;;;17.68;100.00
8280;BME280;8335;42.646;23.380;2023-09-18T05:20:58;145920.06;;;17.61;100.00
8280;BME280;8335;42.646;23.380;2023-09-18T05:23:25;145915.06;;;17.59;100.00
8280;BME280;8335;42.646;23.380;2023-09-18T05:25:53;145948.88;;;17.73;100.00
8280;BME280;8335;42.646;23.380;2023-09-18T05:28:20;145967.63;;;17.80;100.00
8280;BME280;8335;42.646;23.380;2023-09-18T05:30:47;145972.59;;;17.82;100.00
8280;BME280;8335;42.646;23.380;2023-09-18T05:33:14;145986.34;;;17.88;100.00
8280;BME280;8335;42.646;23.380;2023-09-18T05:35:42;145986.34;;;17.88;100.00
8280;BME280;8335;42.646;23.380;2023-09-18T05:38:10;146008.84;;;17.97;100.00
8280;BME280;8335;42.646;23.380;2023-09-18T05:40:38;146040.13;;;18.10;100.00
8280;BME280;8335;42.646;23.380;2023-09-18T05:43:07;146050.09;;;18.14;100.00
8280;BME280;8335;42.646;23.380;2023-09-18T05:45:34;146046.34;;;18.12;100.00
8280;BME280;8335;42.646;23.380;2023-09-18T05:48:00;146078.88;;;18.26;100.00
8280;BME280;8335;42.646;23.380;2023-09-18T05:50:29;146137.63;;;18.50;100.00
8280;BME280;8335;42.646;23.380;2023-09-18T05:52:57;146167.66;;;18.62;100.00
8280;BME280;8335;42.646;23.380;2023-09-18T05:55:25;146196.50;;;18.74;100.00
8280;BME280;8335;42.646;23.380;2023-09-18T05:57:52;146292.81;;;19.13;100.00
8280;BME280;8335;42.646;23.380;2023-09-18T06:00:20;146509.44;;;20.01;99.43
8280;BME280;8335;42.646;23.380;2023-09-18T06:02:47;146756.25;;;21.01;93.65
8280;BME280;8335;42.646;23.380;2023-09-18T06:05:16;147035.88;;;22.15;87.51
8280;BME280;8335;42.646;23.380;2023-09-18T06:07:46;147358.34;;;23.46;81.28
8280;BME280;8335;42.646;23.380;2023-09-18T06:10:13;147678.63;;;24.76;74.22
8280;BME280;8335;42.646;23.380;2023-09-18T06:12:40;147882.25;;;25.58;69.74
8280;BME280;8335;42.646;23.380;2023-09-18T06:15:09;147894.78;;;25.63;68.66
8280;BME280;8335;42.646;23.380;2023-09-18T06:17:38;148049.47;;;26.26;65.81
8280;BME280;8335;42.646;23.380;2023-09-18T06:20:06;148258.38;;;27.10;62.30
8280;BME280;8335;42.646;23.380;2023-09-18T06:22:36;148223.13;;;26.96;60.19
8280;BME280;8335;42.646;23.380;2023-09-18T06:25:03;148206.75;;;26.89;60.82
8280;BME280;8335;42.646;23.380;2023-09-18T06:27:30;148279.75;;;27.19;59.60
8280;BME280;8335;42.646;23.380;2023-09-18T06:30:00;148535.34;;;28.22;57.25
8280;BME280;8335;42.646;23.380;2023-09-18T06:32:26;148745.72;;;29.08;53.09
8280;BME280;8335;42.646;23.380;2023-09-18T06:34:55;148879.34;;;29.62;51.55
8280;BME280;8335;42.646;23.380;2023-09-18T06:37:23;149001.66;;;30.11;50.65
8280;BME280;8335;42.646;23.380;2023-09-18T06:39:50;149053.34;;;30.32;48.34
8280;BME280;8335;42.646;23.380;2023-09-18T06:42:16;149115.09;;;30.57;47.60
8280;BME280;8335;42.646;23.380;2023-09-18T06:44:43;149301.84;;;31.32;46.76
8280;BME280;8335;42.646;23.380;2023-09-18T06:47:10;149448.25;;;31.91;44.53
8280;BME280;8335;42.646;23.380;2023-09-18T06:49:37;149317.00;;;31.38;44.15
8280;BME280;8335;42.646;23.380;2023-09-18T06:52:05;149276.59;;;31.22;44.82
8280;BME280;8335;42.646;23.380;2023-09-18T06:54:32;149314.50;;;31.37;44.46
8280;BME280;8335;42.646;23.380;2023-09-18T06:56:59;149318.25;;;31.39;44.49
8280;BME280;8335;42.646;23.380;2023-09-18T06:59:25;149275.31;;;31.21;44.38
8280;BME280;8335;42.646;23.380;2023-09-18T07:01:52;149329.59;;;31.43;44.45
8280;BME280;8335;42.646;23.380;2023-09-18T07:04:19;149274.03;;;31.21;44.09
8280;BME280;8335;42.646;23.380;2023-09-18T07:06:46;149354.84;;;31.54;44.12
8280;BME280;8335;42.646;23.380;2023-09-18T07:09:14;149392.69;;;31.69;43.17
8280;BME280;8335;42.646;23.380;2023-09-18T07:11:41;149433.09;;;31.85;43.24
8280;BME280;8335;42.646;23.380;2023-09-18T07:14:07;149415.44;;;31.78;42.10
8280;BME280;8335;42.646;23.380;2023-09-18T07:16:34;149417.94;;;31.79;42.35
8280;BME280;8335;42.646;23.380;2023-09-18T07:19:01;149505.03;;;32.14;42.42
8280;BME280;8335;42.646;23.380;2023-09-18T07:21:29;149625.00;;;32.63;40.44
8280;BME280;8335;42.646;23.380;2023-09-18T07:23:56;149680.53;;;32.85;40.33
8280;BME280;8335;42.646;23.380;2023-09-18T07:26:24;149627.50;;;32.64;40.82
8280;BME280;8335;42.646;23.380;2023-09-18T07:28:51;149655.31;;;32.75;39.90
8280;BME280;8335;42.646;23.380;2023-09-18T07:31:18;149573.25;;;32.42;40.36
8280;BME280;8335;42.646;23.380;2023-09-18T07:33:44;149477.28;;;32.03;41.35
8280;BME280;8335;42.646;23.380;2023-09-18T07:36:12;149382.56;;;31.65;42.00
8280;BME280;8335;42.646;23.380;2023-09-18T07:38:40;149441.97;;;31.89;42.50
8280;BME280;8335;42.646;23.380;2023-09-18T07:41:08;149414.16;;;31.77;42.02
8280;BME280;8335;42.646;23.380;2023-09-18T07:43:37;149462.13;;;31.97;41.44
8280;BME280;8335;42.646;23.380;2023-09-18T07:46:04;149472.25;;;32.01;41.98
8280;BME280;8335;42.646;23.380;2023-09-18T07:48:31;149518.91;;;32.20;41.37
8280;BME280;8335;42.646;23.380;2023-09-18T07:50:58;149655.31;;;32.75;39.97
8280;BME280;8335;42.646;23.380;2023-09-18T07:53:24;149672.97;;;32.82;40.11
8280;BME280;8335;42.646;23.380;2023-09-18T07:55:56;149655.31;;;32.75;39.96
8280;BME280;8335;42.646;23.380;2023-09-18T07:58:24;149699.53;;;32.93;39.20
8280;BME280;8335;42.646;23.380;2023-09-18T08:00:54;149823.34;;;33.43;38.00
8280;BME280;8335;42.646;23.380;2023-09-18T08:03:22;149526.53;;;32.23;39.43
8280;BME280;8335;42.646;23.380;2023-09-18T08:05:50;149386.41;;;31.66;41.44
8280;BME280;8335;42.646;23.380;2023-09-18T08:08:18;149269.00;;;31.19;42.17
8280;BME280;8335;42.646;23.380;2023-09-18T08:10:45;149274.03;;;31.21;41.82
8280;BME280;8335;42.646;23.380;2023-09-18T08:13:12;149315.75;;;31.38;42.20
8280;BME280;8335;42.646;23.380;2023-09-18T08:15:39;149324.56;;;31.41;41.28
8280;BME280;8335;42.646;23.380;2023-09-18T08:18:07;149351.06;;;31.52;41.96
8280;BME280;8335;42.646;23.380;2023-09-18T08:20:34;149347.25;;;31.50;41.35
8280;BME280;8335;42.646;23.380;2023-09-18T08:23:03;149247.56;;;31.10;42.03
8280;BME280;8335;42.646;23.380;2023-09-18T08:25:30;149294.31;;;31.29;42.91
8280;BME280;8335;42.646;23.380;2023-09-18T08:27:57;149247.56;;;31.10;41.92
8280;BME280;8335;42.646;23.380;2023-09-18T08:30:24;149248.84;;;31.11;42.62
8280;BME280;8335;42.646;23.380;2023-09-18T08:32:51;149375.03;;;31.62;41.97
8280;BME280;8335;42.646;23.380;2023-09-18T08:35:19;149487.34;;;32.07;40.13
8280;BME280;8335;42.646;23.380;2023-09-18T08:37:47;149593.44;;;32.50;39.85
8280;BME280;8335;42.646;23.380;2023-09-18T08:40:14;149478.53;;;32.03;40.11
8280;BME280;8335;42.646;23.380;2023-09-18T08:42:45;149458.38;;;31.95;40.13
8280;BME280;8335;42.646;23.380;2023-09-18T08:45:22;149222.31;;;31.00;41.82
8280;BME280;8335;42.646;23.380;2023-09-18T08:47:49;149047.03;;;30.29;42.85
8280;BME280;8335;42.646;23.380;2023-09-18T08:50:20;148975.09;;;30.00;43.85
8280;BME280;8335;42.646;23.380;2023-09-18T08:52:48;149063.38;;;30.36;43.57
8280;BME280;8335;42.646;23.380;2023-09-18T08:55:16;149159.28;;;30.75;42.18
8280;BME280;8335;42.646;23.380;2023-09-18T08:57:44;149188.31;;;30.86;42.07
8280;BME280;8335;42.646;23.380;2023-09-18T09:00:13;149239.97;;;31.07;42.18
8280;BME280;8335;42.646;23.380;2023-09-18T09:02:42;149173.19;;;30.80;41.57
8280;BME280;8335;42.646;23.380;2023-09-18T09:05:09;149064.69;;;30.36;42.49
8280;BME280;8335;42.646;23.380;2023-09-18T09:07:37;149103.78;;;30.52;42.58
8280;BME280;8335;42.646;23.380;2023-09-18T09:10:04;148958.75;;;29.94;44.09
8280;BME280;8335;42.646;23.380;2023-09-18T09:12:48;148802.44;;;29.30;45.03
8280;BME280;8335;42.646;23.380;2023-09-18T09:15:15;148845.28;;;29.48;45.04
8280;BME280;8335;42.646;23.380;2023-09-18T09:17:43;148956.19;;;29.93;44.36
8280;BME280;8335;42.646;23.380;2023-09-18T09:20:10;149108.81;;;30.54;43.05
8280;BME280;8335;42.646;23.380;2023-09-18T09:22:39;149337.19;;;31.46;41.29
8280;BME280;8335;42.646;23.380;2023-09-18T09:25:22;149468.44;;;31.99;39.85
8280;BME280;8335;42.646;23.380;2023-09-18T09:27:49;149525.25;;;32.22;39.41
8280;BME280;8335;42.646;23.380;2023-09-18T09:30:20;149540.38;;;32.28;37.98
8280;BME280;8335;42.646;23.380;2023-09-18T09:32:48;149583.34;;;32.46;37.68
8280;BME280;8335;42.646;23.380;2023-09-18T09:35:21;149604.81;;;32.54;37.82
8280;BME280;8335;42.646;23.380;2023-09-18T09:37:49;149520.19;;;32.20;38.33
8280;BME280;8335;42.646;23.380;2023-09-18T09:40:19;149423.03;;;31.81;37.21
8280;BME280;8335;42.646;23.380;2023-09-18T09:42:47;149305.63;;;31.34;38.68
8280;BME280;8335;42.646;23.380;2023-09-18T09:45:15;149218.56;;;30.99;39.33
8280;BME280;8335;42.646;23.380;2023-09-18T09:47:42;149197.13;;;30.90;40.01
8280;BME280;8335;42.646;23.380;2023-09-18T09:50:10;149078.53;;;30.42;40.96
8280;BME280;8335;42.646;23.380;2023-09-18T09:52:41;149063.38;;;30.36;40.77
8280;BME280;8335;42.646;23.380;2023-09-18T09:55:21;149130.22;;;30.63;40.47
8280;BME280;8335;42.646;23.380;2023-09-18T09:57:51;149116.34;;;30.57;40.33
8280;BME280;8335;42.646;23.380;2023-09-18T10:00:18;149025.59;;;30.21;40.45
8280;BME280;8335;42.646;23.380;2023-09-18T10:02:55;149065.94;;;30.37;39.92
8280;BME280;8335;42.646;23.380;2023-09-18T10:05:26;149228.66;;;31.03;38.78
8280;BME280;8335;42.646;23.380;2023-09-18T10:07:54;149416.69;;;31.78;37.71
8280;BME280;8335;42.646;23.380;2023-09-18T10:10:29;149184.50;;;30.85;38.81
8280;BME280;8335;42.646;23.380;2023-09-18T10:13:00;149190.84;;;30.87;37.73
8280;BME280;8335;42.646;23.380;2023-09-18T10:15:32;149388.91;;;31.67;37.33
8280;BME280;8335;42.646;23.380;2023-09-18T10:18:07;149628.78;;;32.64;35.99
8280;BME280;8335;42.646;23.380;2023-09-18T10:20:40;149697.00;;;32.92;34.66
8280;BME280;8335;42.646;23.380;2023-09-18T10:23:20;149602.28;;;32.53;34.66
8280;BME280;8335;42.646;23.380;2023-09-18T10:25:54;149410.34;;;31.76;36.21
8280;BME280;8335;42.646;23.380;2023-09-18T10:28:23;149314.50;;;31.37;36.89
8280;BME280;8335;42.646;23.380;2023-09-18T10:30:52;149347.25;;;31.50;37.72
8280;BME280;8335;42.646;23.380;2023-09-18T10:33:21;149491.19;;;32.09;36.88
8280;BME280;8335;42.646;23.380;2023-09-18T10:35:48;149450.75;;;31.92;36.86
8280;BME280;8335;42.646;23.380;2023-09-18T10:38:16;149452.03;;;31.93;36.99
8280;BME280;8335;42.646;23.380;2023-09-18T10:40:46;149438.19;;;31.87;37.10
8280;BME280;8335;42.646;23.380;2023-09-18T10:43:16;149497.47;;;32.11;36.40
8280;BME280;8335;42.646;23.380;2023-09-18T10:45:44;149577.00;;;32.43;35.28
8280;BME280;8335;42.646;23.380;2023-09-18T10:48:11;149388.91;;;31.67;36.70
8280;BME280;8335;42.646;23.380;2023-09-18T10:50:39;149160.56;;;30.75;38.62
8280;BME280;8335;42.646;23.380;2023-09-18T10:53:06;149013.00;;;30.16;39.06
8280;BME280;8335;42.646;23.380;2023-09-18T10:55:34;148791.09;;;29.26;41.02
8280;BME280;8335;42.646;23.380;2023-09-18T10:58:02;148707.94;;;28.92;41.87
8280;BME280;8335;42.646;23.380;2023-09-18T11:00:32;148678.94;;;28.81;42.62
8280;BME280;8335;42.646;23.380;2023-09-18T11:03:13;148549.16;;;28.28;42.68
8280;BME280;8335;42.646;23.380;2023-09-18T11:05:40;148561.81;;;28.33;43.27
8280;BME280;8335;42.646;23.380;2023-09-18T11:08:29;148587.03;;;28.43;43.29
8280;BME280;8335;42.646;23.380;2023-09-18T11:11:01;148633.59;;;28.62;42.70
8280;BME280;8335;42.646;23.380;2023-09-18T11:13:36;148595.81;;;28.47;42.89
8280;BME280;8335;42.646;23.380;2023-09-18T11:16:15;148449.72;;;27.88;44.08
8280;BME280;8335;42.646;23.380;2023-09-18T11:18:42;148348.97;;;27.47;45.22
8280;BME280;8335;42.646;23.380;2023-09-18T11:21:12;148330.09;;;27.39;45.96
8280;BME280;8335;42.646;23.380;2023-09-18T11:23:43;148361.59;;;27.52;44.73
8280;BME280;8335;42.646;23.380;2023-09-18T11:26:10;148371.63;;;27.56;44.87
8280;BME280;8335;42.646;23.380;2023-09-18T11:28:37;148281.03;;;27.20;45.87
8280;BME280;8335;42.646;23.380;2023-09-18T11:31:05;148119.97;;;26.54;46.81
8280;BME280;8335;42.646;23.380;2023-09-18T11:33:35;148156.44;;;26.69;45.90
8280;BME280;8335;42.646;23.380;2023-09-18T11:36:04;148009.25;;;26.10;47.05
8280;BME280;8335;42.646;23.380;2023-09-18T11:38:33;148156.44;;;26.69;46.91
8280;BME280;8335;42.646;23.380;2023-09-18T11:41:20;148162.69;;;26.72;47.43
8280;BME280;8335;42.646;23.380;2023-09-18T11:43:47;148101.09;;;26.47;48.78
8280;BME280;8335;42.646;23.380;2023-09-18T11:46:18;148069.59;;;26.34;48.21
8280;BME280;8335;42.646;23.380;2023-09-18T11:48:48;148073.38;;;26.35;47.67
8280;BME280;8335;42.646;23.380;2023-09-18T11:51:23;148102.34;;;26.47;48.62
8280;BME280;8335;42.646;23.380;2023-09-18T11:53:52;148124.97;;;26.56;47.74
8280;BME280;8335;42.646;23.380;2023-09-18T11:56:20;148072.09;;;26.35;48.78
8280;BME280;8335;42.646;23.380;2023-09-18T11:58:48;148002.94;;;26.07;48.58
8280;BME280;8335;42.646;23.380;2023-09-18T12:01:15;148005.50;;;26.08;49.30
8280;BME280;8335;42.646;23.380;2023-09-18T12:03:42;147994.16;;;26.03;49.61
8280;BME280;8335;42.646;23.380;2023-09-18T12:06:10;148010.53;;;26.10;49.25
8280;BME280;8335;42.646;23.380;2023-09-18T12:08:39;147963.97;;;25.91;49.50
8280;BME280;8335;42.646;23.380;2023-09-18T12:11:06;147989.16;;;26.01;50.18
8280;BME280;8335;42.646;23.380;2023-09-18T12:13:34;147946.38;;;25.84;51.37
8280;BME280;8335;42.646;23.380;2023-09-18T12:16:01;147889.78;;;25.61;52.53
8280;BME280;8335;42.646;23.380;2023-09-18T12:18:30;147864.66;;;25.51;52.85
8280;BME280;8335;42.646;23.380;2023-09-18T12:21:00;147893.53;;;25.63;52.98
8280;BME280;8335;42.646;23.380;2023-09-18T12:23:36;147893.53;;;25.63;52.99
8280;BME280;8335;42.646;23.380;2023-09-18T12:26:03;147928.78;;;25.77;53.35
8280;BME280;8335;42.646;23.380;2023-09-18T12:28:33;147914.91;;;25.71;53.82
8280;BME280;8335;42.646;23.380;2023-09-18T12:31:00;147901.09;;;25.66;54.10
8280;BME280;8335;42.646;23.380;2023-09-18T12:33:34;147862.09;;;25.50;55.06
8280;BME280;8335;42.646;23.380;2023-09-18T12:36:02;147830.72;;;25.37;54.63
8280;BME280;8335;42.646;23.380;2023-09-18T12:38:31;147823.16;;;25.34;54.59
8280;BME280;8335;42.646;23.380;2023-09-18T12:40:59;147789.22;;;25.20;54.61
8280;BME280;8335;42.646;23.380;2023-09-18T12:43:34;147819.41;;;25.33;55.41
8280;BME280;8335;42.646;23.380;2023-09-18T12:46:02;147840.75;;;25.41;53.55
8280;BME280;8335;42.646;23.380;2023-09-18T12:48:30;147829.47;;;25.37;53.42
8280;BME280;8335;42.646;23.380;2023-09-18T12:51:02;147840.75;;;25.41;53.49
8280;BME280;8335;42.646;23.380;2023-09-18T12:53:32;147811.88;;;25.30;53.90
8280;BME280;8335;42.646;23.380;2023-09-18T12:56:07;147825.66;;;25.35;54.17
8280;BME280;8335;42.646;23.380;2023-09-18T12:58:34;147844.50;;;25.43;54.05
8280;BME280;8335;42.646;23.380;2023-09-18T13:01:04;147860.84;;;25.49;54.42